MSC Paola — 9HA2581 — position and weather

sailwx.info

Track history (hours):
 
Tides and Currents Weather Stations Pressure Air Temp Water Temp Dewpoint Dewpoint Depression Visibility Wind Speed Wind Dir Waves Ship Positions

MSC Paola

Last reported at 2014-Nov-14 17:33 UTC. Time now 2014-Nov-24 09:26 UTC.
Position S 37°57' E 149°42'.
Warning: this ship's position is 9 days out of date.

Length 243 m; draft 7.8 m.

Type: Ship (hazmat cat A). MMSI: 248931000.

Date/timePositionNaut miles runAvg speedWind from/ knotsBaromVisibWave heightAir tempDewpointWater temp
2014-Nov-14 17:33S 37°57' E 149°42'9519.1
2014-Nov-14 12:33S 38°51' E 148°01'2120.6
2014-Nov-14 11:33S 38°59' E 147°37'2120.8
2014-Nov-14 10:33S 39°05' E 147°11'2120.7
2014-Nov-14 09:33S 39°12' E 146°46'2020.1
2014-Nov-14 08:34S 39°17' E 146°21'1919.0
2014-Nov-14 07:34S 39°10' E 145°58'84 2.8
2014-Nov-13 01:15S 38°02' E 144°56'1816.9
2014-Nov-13 00:11S 38°20' E 144°54'1116.8
2014-Nov-12 23:33S 38°17' E 144°41'1010.2
2014-Nov-12 22:33S 38°23' E 144°30'9 9.3
2014-Nov-12 21:33S 38°29' E 144°20'1313.0
2014-Nov-12 20:33S 38°37' E 144°08'1313.3
2014-Nov-12 19:33S 38°45' E 143°54'1413.7
2014-Nov-12 18:33S 38°54' E 143°41'1312.7
2014-Nov-12 17:34S 38°56' E 143°24'1414.2
2014-Nov-12 16:33S 38°54' E 143°06'1414.3
2014-Nov-12 15:33S 38°51' E 142°48'1413.9
2014-Nov-12 14:33S 38°48' E 142°31'1413.7
2014-Nov-12 13:32S 38°43' E 142°14'1413.8
2014-Nov-12 12:33S 38°39' E 141°57'1414.3
2014-Nov-12 11:33S 38°35' E 141°40'1414.2
2014-Nov-12 10:33S 38°29' E 141°23'1414.1
2014-Nov-12 09:33S 38°24' E 141°07'1414.2
2014-Nov-12 08:33S 38°17' E 140°51'1414.4
2014-Nov-12 07:33S 38°11' E 140°34'1414.2
2014-Nov-12 06:33S 38°05' E 140°18'14414.4
2014-Nov-11 20:33S 36°09' E 138°29'1616.3
2014-Nov-11 19:33S 35°56' E 138°18'70 8.7
2014-Nov-11 11:30S 34°46' E 138°30'0 0.0
2014-Nov-11 10:33S 34°46' E 138°30'0 0.0
2014-Nov-11 09:33S 34°46' E 138°30'0 0.0
2014-Nov-11 07:33S 34°46' E 138°30'0 0.0
2014-Nov-11 06:33S 34°46' E 138°30'0 0.0
2014-Nov-11 04:32S 34°46' E 138°30'0 0.0
2014-Nov-11 03:32S 34°46' E 138°30'0 0.1
2014-Nov-11 00:23S 34°46' E 138°29'7 8.0
2014-Nov-10 23:33S 34°49' E 138°22'7 7.2
2014-Nov-10 22:33S 34°54' E 138°16'1716.6
2014-Nov-10 21:33S 35°07' E 138°04'1716.4
2014-Nov-10 20:32S 35°15' E 137°46'  
Track history (hours):
 
Tides and Currents Weather Stations Pressure Air Temp Water Temp Dewpoint Dewpoint Depression Visibility Wind Speed Wind Dir Waves Ship Positions

MSC Paola

Last reported at 2014-Nov-14 17:33 UTC. Time now 2014-Nov-24 09:26 UTC.
Position S 37°57' E 149°42'.
Warning: this ship's position is 9 days out of date.

Length 243 m; draft 7.8 m.

Type: Ship (hazmat cat A). MMSI: 248931000.

Date/timePositionNaut miles runAvg speedWind from/ knotsBaromVisibWave heightAir tempDewpointWater temp
2014-Nov-14 17:33S 37°57' E 149°42'9519.1
2014-Nov-14 12:33S 38°51' E 148°01'2120.6
2014-Nov-14 11:33S 38°59' E 147°37'2120.8
2014-Nov-14 10:33S 39°05' E 147°11'2120.7
2014-Nov-14 09:33S 39°12' E 146°46'2020.1
2014-Nov-14 08:34S 39°17' E 146°21'1919.0
2014-Nov-14 07:34S 39°10' E 145°58'84 2.8
2014-Nov-13 01:15S 38°02' E 144°56'1816.9
2014-Nov-13 00:11S 38°20' E 144°54'1116.8
2014-Nov-12 23:33S 38°17' E 144°41'1010.2
2014-Nov-12 22:33S 38°23' E 144°30'9 9.3
2014-Nov-12 21:33S 38°29' E 144°20'1313.0
2014-Nov-12 20:33S 38°37' E 144°08'1313.3
2014-Nov-12 19:33S 38°45' E 143°54'1413.7
2014-Nov-12 18:33S 38°54' E 143°41'1312.7
2014-Nov-12 17:34S 38°56' E 143°24'1414.2
2014-Nov-12 16:33S 38°54' E 143°06'1414.3
2014-Nov-12 15:33S 38°51' E 142°48'1413.9
2014-Nov-12 14:33S 38°48' E 142°31'1413.7
2014-Nov-12 13:32S 38°43' E 142°14'1413.8
2014-Nov-12 12:33S 38°39' E 141°57'1414.3
2014-Nov-12 11:33S 38°35' E 141°40'1414.2
2014-Nov-12 10:33S 38°29' E 141°23'1414.1
2014-Nov-12 09:33S 38°24' E 141°07'1414.2
2014-Nov-12 08:33S 38°17' E 140°51'1414.4
2014-Nov-12 07:33S 38°11' E 140°34'1414.2
2014-Nov-12 06:33S 38°05' E 140°18'14414.4
2014-Nov-11 20:33S 36°09' E 138°29'1616.3
2014-Nov-11 19:33S 35°56' E 138°18'70 8.7
2014-Nov-11 11:30S 34°46' E 138°30'0 0.0
2014-Nov-11 10:33S 34°46' E 138°30'0 0.0
2014-Nov-11 09:33S 34°46' E 138°30'0 0.0
2014-Nov-11 07:33S 34°46' E 138°30'0 0.0
2014-Nov-11 06:33S 34°46' E 138°30'0 0.0
2014-Nov-11 04:32S 34°46' E 138°30'0 0.0
2014-Nov-11 03:32S 34°46' E 138°30'0 0.1
2014-Nov-11 00:23S 34°46' E 138°29'7 8.0
2014-Nov-10 23:33S 34°49' E 138°22'7 7.2
2014-Nov-10 22:33S 34°54' E 138°16'1716.6
2014-Nov-10 21:33S 35°07' E 138°04'1716.4
2014-Nov-10 20:32S 35°15' E 137°46'  

Dump ship's entire track history